Terminal Aerodrome Forecast
Issued by NWS

Home | Current Version | Previous Version | Text Only | Print | Product List | Glossary On
Versions: 1 2 3 4 5 6 7 8 9 10 11 12
000
FTUS45 KRIW 270500
TAFBPI
TAF
KBPI 270539Z 2706/2806 VRB05KT P6SM BKN200
     FM272000 29015KT P6SM SCT100 BKN200
     FM280100 34008KT P6SM FEW110 SCT200=

USA.gov is the U.S. government's official web portal to all federal, state and local government web resources and services.